Time;durP1;ratioP1;P1;durP2;ratioP2;P2;SDS_P1;SDS_P2;PMS_P1;PMS_P2;Temp;Humidity;BMP_temperature;BMP_pressure;BME280_temperature;BME280_humidity;BME280_pressure;Samples;Min_cycle;Max_cycle;Signal;HPM_P1;HPM_P2
2022/10/21 00:02:48;;;;;;;56.00;35.58;;;;;;;;;;6273883;22;20023;-88
2022/10/21 00:05:14;;;;;;;66.70;35.75;;;;;;;;;;6300878;22;20065;-89
2022/10/21 00:07:41;;;;;;;58.28;35.85;;;;;;;;;;6224561;22;20015;-89
2022/10/21 00:10:10;;;;;;;62.15;35.10;;;;;;;;;;6299602;22;20088;-89
2022/10/21 00:12:36;;;;;;;67.82;36.25;;;;;;;;;;6303924;22;20026;-89
2022/10/21 00:15:03;;;;;;;68.28;36.10;;;;;;;;;;6300955;22;20032;-88
2022/10/21 00:17:30;;;;;;;62.35;34.90;;;;;;;;;;6276556;22;20019;-90
2022/10/21 00:19:59;;;;;;;62.33;34.97;;;;;;;;;;6298680;22;20019;-88
2022/10/21 00:22:25;;;;;;;64.20;36.35;;;;;;;;;;6273941;22;20023;-88
2022/10/21 00:24:51;;;;;;;62.03;36.22;;;;;;;;;;6245399;22;20018;-88
2022/10/21 00:27:17;;;;;;;62.92;36.22;;;;;;;;;;6219460;22;20030;-88
2022/10/21 00:29:58;;;;;;;62.42;35.05;;;;;;;;;;6243778;22;20482;-88
2022/10/21 00:32:36;;;;;;;63.33;36.60;;;;;;;;;;6272488;22;20023;-88
2022/10/21 00:35:10;;;;;;;60.17;35.45;;;;;;;;;;6267269;22;20057;-88
2022/10/21 00:37:36;;;;;;;58.33;34.57;;;;;;;;;;6272171;22;20077;-88
2022/10/21 00:40:02;;;;;;;66.57;36.47;;;;;;;;;;6245419;22;20351;-88
2022/10/21 00:42:31;;;;;;;59.40;35.47;;;;;;;;;;6245504;22;20046;-89
2022/10/21 00:45:17;;;;;;;65.35;36.97;;;;;;;;;;6297999;22;20019;-88
2022/10/21 00:48:10;;;;;;;66.13;36.33;;;;;;;;;;6269060;22;20019;-89
2022/10/21 00:50:51;;;;;;;66.60;36.90;;;;;;;;;;6248362;22;20027;-89
2022/10/21 00:53:18;;;;;;;66.72;36.75;;;;;;;;;;6271585;22;20080;-88
2022/10/21 00:55:47;;;;;;;60.10;35.72;;;;;;;;;;6248400;22;20060;-89
2022/10/21 00:58:22;;;;;;;61.92;34.28;;;;;;;;;;6272790;22;20030;-90
2022/10/21 01:00:49;;;;;;;58.80;36.40;;;;;;;;;;6274255;22;20027;-89
2022/10/21 01:03:15;;;;;;;68.97;37.10;;;;;;;;;;6247993;22;20090;-88
2022/10/21 01:05:41;;;;;;;66.88;36.40;;;;;;;;;;6247965;22;20072;-89
2022/10/21 01:08:07;;;;;;;59.35;35.92;;;;;;;;;;6273062;22;20081;-88
2022/10/21 01:10:43;;;;;;;61.40;34.25;;;;;;;;;;6269354;22;20196;-88
2022/10/21 01:13:28;;;;;;;60.53;35.53;;;;;;;;;;6248104;22;20105;-89
2022/10/21 01:16:13;;;;;;;62.45;35.63;;;;;;;;;;6246663;22;20019;-88
2022/10/21 01:18:54;;;;;;;62.20;35.42;;;;;;;;;;6247039;22;20023;-87
2022/10/21 01:21:30;;;;;;;53.97;33.58;;;;;;;;;;6247108;22;20023;-88
2022/10/21 01:24:40;;;;;;;59.47;33.03;;;11.60;99.90;;;;;;6269418;22;20023;-89
2022/10/21 01:27:32;;;;;;;58.53;34.00;;;;;;;;;;6247766;22;20008;-90
2022/10/21 01:30:16;;;;;;;55.15;33.65;;;;;;;;;;6251197;22;20038;-92
2022/10/21 01:33:05;;;;;;;62.53;33.15;;;;;;;;;;6302287;22;20015;-90
2022/10/21 01:35:50;;;;;;;60.83;35.30;;;;;;;;;;6275364;22;20018;-91
2022/10/21 01:38:41;;;;;;;61.72;33.97;;;;;;;;;;6272987;22;20043;-91
2022/10/21 01:43:49;;;;;;;58.33;33.80;;;;;;;;;;6329171;22;20023;-90
2022/10/21 01:46:23;;;;;;;56.83;33.38;;;;;;;;;;6299332;22;20112;-89
2022/10/21 01:49:14;;;;;;;56.45;33.53;;;;;;;;;;6302285;22;20076;-89
2022/10/21 01:51:56;;;;;;;58.03;32.85;;;;;;;;;;6303307;22;20329;-90
2022/10/21 01:54:37;;;;;;;58.05;34.63;;;;;;;;;;6276839;22;20019;-89
2022/10/21 01:57:33;;;;;;;58.75;32.58;;;;;;;;;;6304035;22;20015;-90
2022/10/21 02:00:09;;;;;;;62.90;33.80;;;;;;;;;;6302625;22;20015;-90
2022/10/21 02:02:53;;;;;;;67.15;34.42;;;;;;;;;;6254428;22;20018;-89
2022/10/21 02:05:21;;;;;;;57.42;34.10;;;;;;;;;;6277027;22;20019;-88
2022/10/21 02:07:47;;;;;;;62.53;33.30;;;;;;;;;;6305122;22;20017;-90
2022/10/21 02:10:14;;;;;;;67.53;35.22;;;;;;;;;;6277354;22;20058;-90
2022/10/21 02:15:28;;;;;;;58.38;33.95;;;;;;;;;;6300263;22;20508;-90
2022/10/21 02:18:23;;;;;;;60.70;35.75;;;;;;;;;;6331229;22;20018;-88
2022/10/21 02:20:52;;;;;;;61.08;35.22;;;;;;;;;;6272773;22;20048;-91
2022/10/21 02:23:20;;;;;;;60.75;34.97;;;;;;;;;;6270161;22;20019;-91
2022/10/21 02:26:02;;;;;;;60.22;33.58;;;;;;;;;;6323647;22;20026;-90
2022/10/21 02:28:28;;;;;;;59.30;34.95;;;;;;;;;;6293946;22;20022;-90
2022/10/21 02:31:06;;;;;;;62.63;33.40;;;;;;;;;;6292341;22;20058;-91
2022/10/21 02:33:46;;;;;;;58.40;33.80;;;;;;;;;;6269527;22;20023;-89
2022/10/21 02:36:42;;;;;;;63.65;35.78;;;;;;;;;;6279533;22;20019;-88
2022/10/21 02:42:45;;;;;;;59.70;33.33;;;;;;;;;;6177907;23;20020;-91
2022/10/21 02:45:28;;;;;;;62.65;34.40;;;;;;;;;;6202592;23;20020;-92
2022/10/21 02:48:09;;;;;;;56.78;34.42;;;;;;;;;;6155315;23;20021;-91
2022/10/21 02:50:47;;;;;;;55.00;32.13;;;;;;;;;;6204445;23;20114;-89
2022/10/21 02:53:13;;;;;;;55.55;33.55;;;;;;;;;;6191493;23;20024;-89
2022/10/21 02:55:45;;;;;;;49.78;31.50;;;;;;;;;;6182829;23;20039;-91
2022/10/21 02:58:18;;;;;;;44.28;30.92;;;;;;;;;;6158515;23;20155;-91
2022/10/21 03:00:47;;;;;;;54.03;31.80;;;;;;;;;;6181885;23;20039;-89
2022/10/21 03:03:16;;;;;;;54.47;30.85;;;;;;;;;;6169105;23;20965;-87
2022/10/21 03:05:42;;;;;;;51.38;28.83;;;;;;;;;;6236876;22;20042;-88
2022/10/21 03:08:11;;;;;;;49.40;30.20;;;;;;;;;;6313514;22;20086;-89
2022/10/21 03:10:41;;;;;;;55.30;30.92;;;;;;;;;;6302063;22;20715;-89
2022/10/21 03:13:07;;;;;;;46.40;29.17;;;;;;;;;;6250459;22;20019;-88
2022/10/21 03:15:33;;;;;;;47.83;28.45;;;;;;;;;;6270243;22;20019;-89
2022/10/21 03:18:06;;;;;;;49.28;29.38;;;;;;;;;;6299927;22;20019;-91
2022/10/21 03:20:41;;;;;;;50.10;29.75;;;;;;;;;;6268741;22;20019;-88
2022/10/21 03:23:07;;;;;;;51.45;31.50;;;;;;;;;;6298192;22;20747;-86
2022/10/21 03:25:59;;;;;;;52.72;30.88;;;;;;;;;;6296139;22;20015;-89
2022/10/21 03:28:25;;;;;;;62.28;32.72;;;;;;;;;;6302637;22;20015;-88
2022/10/21 03:30:51;;;;;;;58.80;30.80;;;;;;;;;;6297270;22;20773;-86
2022/10/21 03:33:17;;;;;;;71.78;33.83;;;;;;;;;;6299626;22;20011;-83
2022/10/21 03:35:43;;;;;;;75.65;35.55;;;;;;;;;;6301857;22;20068;-85
2022/10/21 03:38:09;;;;;;;73.40;36.58;;;;;;;;;;6272835;22;20460;-84
2022/10/21 03:40:35;;;;;;;72.35;35.90;;;;;;;;;;6299263;22;20486;-85
2022/10/21 03:43:01;;;;;;;62.45;31.65;;;;;;;;;;6309552;22;21352;-86
2022/10/21 03:45:27;;;;;;;63.83;32.05;;;;;;;;;;6301799;22;20480;-85
2022/10/21 03:47:54;;;;;;;71.50;32.97;;;;;;;;;;6329567;22;20536;-86
2022/10/21 03:50:20;;;;;;;71.03;30.52;;;;;;;;;;6278334;22;20019;-87
2022/10/21 03:52:46;;;;;;;71.07;32.95;;;;;;;;;;6277669;22;20034;-87
2022/10/21 03:55:27;;;;;;;79.03;34.80;;;;;;;;;;6275552;22;20057;-87
2022/10/21 03:57:53;;;;;;;117.38;39.28;;;;;;;;;;6303133;22;20027;-87
2022/10/21 04:00:20;;;;;;;132.80;40.45;;;;;;;;;;6274348;22;20015;-87
2022/10/21 04:02:55;;;;;;;105.82;39.72;;;;;;;;;;6277876;22;20015;-87
2022/10/21 04:05:21;;;;;;;176.30;44.78;;;;;;;;;;6298214;22;20034;-87
2022/10/21 04:07:47;;;;;;;134.52;41.45;;;;;;;;;;6251640;22;20015;-86
2022/10/21 04:10:13;;;;;;;130.50;39.90;;;;;;;;;;6300722;22;20501;-86
2022/10/21 04:12:39;;;;;;;222.30;49.03;;;;;;;;;;6275271;22;20411;-87
2022/10/21 04:15:06;;;;;;;150.68;42.60;;;;;;;;;;6329513;22;20026;-86
2022/10/21 04:17:33;;;;;;;175.35;46.30;;;;;;;;;;6274898;22;20451;-88
2022/10/21 04:20:09;;;;;;;147.98;43.55;;;;;;;;;;6302072;22;20050;-86
2022/10/21 04:22:54;;;;;;;119.90;43.42;;;;;;;;;;6300626;22;20022;-86
2022/10/21 04:25:23;;;;;;;;;;;;;;;;;;6304777;22;20230;-87
2022/10/21 04:27:55;;;;;;;152.75;45.22;;;;;;;;;;6330320;22;19930;-86
2022/10/21 04:30:21;;;;;;;169.05;45.42;;;;;;;;;;6330177;22;20019;-87
2022/10/21 04:32:49;;;;;;;141.18;42.63;;;;;;;;;;6329568;22;20029;-89
2022/10/21 04:35:24;;;;;;;124.93;43.75;;;;;;;;;;6329165;22;20023;-87
2022/10/21 04:37:50;;;;;;;117.70;43.13;;;;;;;;;;6250008;22;20026;-88
2022/10/21 04:40:31;;;;;;;107.88;41.83;;;;;;;;;;6302879;22;20029;-90
2022/10/21 04:42:58;;;;;;;108.63;41.97;;;;;;;;;;6330802;22;20115;-88
2022/10/21 04:45:24;;;;;;;108.03;42.15;;;;;;;;;;6328429;22;20520;-88
2022/10/21 04:48:02;;;;;;;111.68;42.97;;;;;;;;;;6303235;22;20022;-88
2022/10/21 04:50:29;;;;;;;114.72;42.25;;;;;;;;;;6327685;22;20026;-87
2022/10/21 04:52:55;;;;;;;125.63;44.15;;;;;;;;;;6306918;22;20351;-89
2022/10/21 04:55:21;;;;;;;111.53;43.13;;;;;;;;;;6307943;22;20362;-88
2022/10/21 04:57:47;;;;;;;123.80;44.25;;;;;;;;;;6336477;22;20015;-88
2022/10/21 05:00:14;;;;;;;147.38;47.40;;;;;;;;;;6303920;22;20105;-87
2022/10/21 05:02:40;;;;;;;115.53;42.78;;;;;;;;;;6276254;22;20101;-86
2022/10/21 05:05:06;;;;;;;123.63;44.30;;;;;;;;;;6329288;22;20070;-87
2022/10/21 05:07:32;;;;;;;135.55;46.35;;;;;;;;;;6329995;22;20397;-89
2022/10/21 05:10:08;;;;;;;142.45;46.38;;;;;;;;;;6303939;22;20014;-90
2022/10/21 05:12:34;;;;;;;118.55;43.72;;;;;;;;;;6280095;22;20018;-89
2022/10/21 05:15:01;;;;;;;144.15;46.33;;;;;;;;;;6278740;22;20121;-87
2022/10/21 05:17:27;;;;;;;137.27;45.22;;;;;;;;;;6303385;22;20019;-86
2022/10/21 05:20:08;;;;;;;145.55;45.67;;;;;;;;;;6331872;22;20375;-87
2022/10/21 05:22:34;;;;;;;154.30;46.75;;;;;;;;;;6277539;22;20026;-88
2022/10/21 05:25:03;;;;;;;156.52;46.50;;;;;;;;;;6301002;22;20220;-89
2022/10/21 05:27:29;;;;;;;206.65;51.85;;;;;;;;;;6274415;22;20061;-88
2022/10/21 05:29:57;;;;;;;174.13;49.92;;;;;;;;;;6249366;22;20015;-88
2022/10/21 05:34:53;;;;;;;170.50;49.67;;;;;;;;;;6297363;22;20027;-88
2022/10/21 05:37:19;;;;;;;186.23;49.53;;;;;;;;;;6269338;22;20027;-88
2022/10/21 05:39:51;;;;;;;160.35;46.38;;;;;;;;;;6295614;22;20730;-88
2022/10/21 05:42:32;;;;;;;147.35;45.95;;;;;;;;;;6294434;22;20019;-89
2022/10/21 05:45:13;;;;;;;129.60;44.15;;;;;;;;;;6299413;22;20029;-87
2022/10/21 05:47:43;;;;;;;130.02;44.67;;;;;;;;;;6268296;22;20050;-91
2022/10/21 05:50:10;;;;;;;132.45;44.97;;;;;;;;;;6270243;22;20019;-90
2022/10/21 05:52:36;;;;;;;143.57;46.35;;;;;;;;;;6297313;22;20050;-88
2022/10/21 05:55:03;;;;;;;138.20;45.30;;;;;;;;;;6298061;22;20019;-91
2022/10/21 05:57:44;;;;;;;136.73;47.25;;;;;;;;;;6297288;22;20035;-91
2022/10/21 06:00:23;;;;;;;140.68;48.30;;;;;;;;;;6297852;22;20036;-90
2022/10/21 06:03:01;;;;;;;139.43;47.88;;;;;;;;;;6298762;22;20102;-90
2022/10/21 06:05:40;;;;;;;149.45;48.90;;;;;;;;;;6296955;22;20015;-89
2022/10/21 06:11:21;;;;;;;152.50;49.75;;;;;;;;;;6330284;22;20034;-91
2022/10/21 06:13:59;;;;;;;168.27;50.33;;;;;;;;;;6274728;22;20530;-89
2022/10/21 06:16:26;;;;;;;165.38;50.83;;;;;;;;;;6301119;22;20014;-90
2022/10/21 06:18:52;;;;;;;158.02;48.50;;;;;;;;;;6275736;22;20019;-91
2022/10/21 06:21:34;;;;;;;148.73;48.50;;;;;;;;;;6330800;22;20026;-93
2022/10/21 06:24:09;;;;;;;129.80;46.75;;;;;;;;;;6277738;22;20023;-91
2022/10/21 06:26:35;;;;;;;128.05;46.28;;;;;;;;;;6278922;22;20018;-90
2022/10/21 06:29:01;;;;;;;113.38;43.90;;;;;;;;;;6303627;22;20050;-89
2022/10/21 06:31:27;;;;;;;134.68;45.53;;;;;;;;;;6276878;22;20106;-90
2022/10/21 06:33:59;;;;;;;109.90;44.35;;;;;;;;;;6277796;22;20022;-89
2022/10/21 06:36:26;;;;;;;123.90;45.92;;;;;;;;;;6301132;22;20097;-89
2022/10/21 06:38:52;;;;;;;119.68;44.92;;;;;;;;;;6277124;22;20011;-88
2022/10/21 06:41:18;;;;;;;138.45;47.00;;;;;;;;;;6301930;22;20015;-89
2022/10/21 06:43:53;;;;;;;126.18;45.83;;;;;;;;;;6304717;22;20029;-90
2022/10/21 06:46:26;;;;;;;117.80;42.40;;;;;;;;;;6329371;22;20018;-88
2022/10/21 06:48:53;;;;;;;120.43;44.70;;;;;;;;;;6305100;22;20422;-91
2022/10/21 06:51:28;;;;;;;124.93;45.85;;;;;;;;;;6335662;22;20105;-86
2022/10/21 06:53:55;;;;;;;129.57;44.35;;;;;;;;;;6319641;22;20040;-87
2022/10/21 06:56:22;;;;;;;110.65;42.70;;;;;;;;;;6356413;22;20014;-89
2022/10/21 06:58:49;;;;;;;106.75;43.50;;;;;;;;;;6301614;22;20027;-89
2022/10/21 07:01:17;;;;;;;98.40;42.53;;;;;;;;;;6304209;22;20003;-89
2022/10/21 07:03:43;;;;;;;105.60;42.67;;;;;;;;;;6294785;22;20114;-88
2022/10/21 07:06:09;;;;;;;106.22;42.53;;;;;;;;;;6343210;22;20022;-89
2022/10/21 07:08:57;;;;;;;102.22;40.17;;;;;;;;;;6309583;22;20034;-87
2022/10/21 07:11:48;;;;;;;101.28;42.80;;;;;;;;;;6269484;22;20019;-87
2022/10/21 07:14:26;;;;;;;109.03;42.70;;;;;;;;;;6248420;22;20081;-88
2022/10/21 07:16:59;;;;;;;110.65;42.50;;;;;;;;;;6254827;22;20024;-89
2022/10/21 07:19:37;;;;;;;103.35;42.25;;;;;;;;;;6257334;22;20016;-91
2022/10/21 07:28:04;;;;;;;106.80;43.83;;;;;;;;;;6273938;22;20023;-90
2022/10/21 07:36:12;;;;;;;100.05;42.35;;;12.40;99.90;;;;;;6299096;22;20042;-89
2022/10/21 07:38:38;;;;;;;102.22;43.35;;;;;;;;;;6272668;22;20015;-89
2022/10/21 07:41:21;;;;;;;96.60;42.58;;;;;;;;;;6243370;22;20064;-92
2022/10/21 07:44:12;;;;;;;87.93;39.90;;;;;;;;;;6270150;22;20019;-88
2022/10/21 07:46:39;;;;;;;103.70;43.83;;;;;;;;;;6296857;22;20023;-90
2022/10/21 07:49:05;;;;;;;96.00;41.35;;;;;;;;;;6242065;22;20123;-88
2022/10/21 07:51:31;;;;;;;90.13;40.55;;;;;;;;;;6301791;22;20022;-88
2022/10/21 07:53:58;;;;;;;86.68;41.80;;;;;;;;;;6267404;22;20030;-88
2022/10/21 07:56:35;;;;;;;82.38;38.70;;;;;;;;;;6245363;22;20023;-90
2022/10/21 07:59:19;;;;;;;96.15;40.28;;;;;;;;;;6294508;22;20427;-91
2022/10/21 08:04:28;;;;;;;83.78;38.58;;;;;;;;;;6328815;22;20436;-89
2022/10/21 08:06:55;;;;;;;79.45;38.13;;;;;;;;;;6254945;22;20018;-89
2022/10/21 08:11:57;;;;;;;88.78;40.25;;;;;;;;;;6307661;22;20023;-91
2022/10/21 08:14:24;;;;;;;90.57;39.58;;;;;;;;;;6274031;22;20038;-87
2022/10/21 08:16:53;;;;;;;86.95;39.22;;;;;;;;;;6298170;22;20106;-90
2022/10/21 08:24:40;;;;;;;80.63;37.67;;;;;;;;;;6307462;22;19914;-90
2022/10/21 08:27:06;;;;;;;77.93;39.25;;;;;;;;;;6228884;22;20023;-89
2022/10/21 08:29:54;;;;;;;75.18;37.47;;;;;;;;;;6203056;22;20015;-90
2022/10/21 08:35:43;;;;;;;74.25;36.63;;;;;;;;;;6338431;22;20026;-87
2022/10/21 08:38:10;;;;;;;80.28;39.20;;;;;;;;;;6280479;22;20615;-89
2022/10/21 08:40:38;;;;;;;74.32;38.05;;;;;;;;;;6281284;22;20084;-89
2022/10/21 09:04:38;;;;;;;55.92;31.67;;;;;;;;;;6305038;22;20050;-91
2022/10/21 09:49:02;;;;;;;27.08;20.15;;;;;;;;;;6316410;22;20546;-91
2022/10/21 09:55:06;;;;;;;22.63;19.45;;;;;;;;;;6338693;22;20029;-89
2022/10/21 09:58:04;;;;;;;28.50;19.23;;;;;;;;;;6281710;22;20025;-88
2022/10/21 10:00:53;;;;;;;25.48;18.08;;;;;;;;;;6346203;22;20019;-90
2022/10/21 10:06:11;;;;;;;22.60;15.50;;;;;;;;;;6333581;22;20046;-89
2022/10/21 10:08:54;;;;;;;29.98;18.52;;;;;;;;;;6308390;22;20026;-89
2022/10/21 10:11:26;;;;;;;23.88;17.48;;;;;;;;;;6284301;22;20394;-89
2022/10/21 10:13:53;;;;;;;22.27;15.60;;;;;;;;;;6283404;22;20029;-88
2022/10/21 10:16:22;;;;;;;26.23;18.08;;;;;;;;;;6258427;22;20076;-89
2022/10/21 10:18:49;;;;;;;26.63;18.13;;;;;;;;;;6311623;22;20054;-89
2022/10/21 10:24:40;;;;;;;24.30;18.17;;;;;;;;;;6315331;22;20022;-90
2022/10/21 10:27:33;;;;;;;23.70;16.27;;;;;;;;;;6275609;22;20050;-88
2022/10/21 10:30:05;;;;;;;24.20;15.18;;;;;;;;;;6275494;22;20462;-86
2022/10/21 10:32:52;;;;;;;21.88;15.95;;;;;;;;;;6246901;22;20031;-88
2022/10/21 10:43:59;;;;;;;21.15;14.15;;;;;;;;;;6335508;22;20077;-88
2022/10/21 10:46:38;;;;;;;20.52;13.07;;;;;;;;;;6305454;22;20098;-89
2022/10/21 10:49:21;;;;;;;17.20;12.40;;;;;;;;;;6332212;22;20109;-90
2022/10/21 10:52:12;;;;;;;20.58;12.80;;;;;;;;;;6336932;22;20057;-89
2022/10/21 10:54:41;;;;;;;15.20;11.50;;;;;;;;;;6282119;22;20023;-89
2022/10/21 10:57:27;;;;;;;16.55;13.05;;;;;;;;;;6335807;22;20022;-89
2022/10/21 11:00:21;;;;;;;13.85;11.55;;;;;;;;;;6279070;22;20439;-88
2022/10/21 11:02:59;;;;;;;20.55;11.32;;;;;;;;;;6281121;22;20100;-89
2022/10/21 11:05:37;;;;;;;16.33;12.00;;;;;;;;;;6281707;22;20022;-89
2022/10/21 11:08:15;;;;;;;17.33;12.10;;;;;;;;;;6333948;22;20168;-89
2022/10/21 11:11:01;;;;;;;18.63;12.05;;;;;;;;;;6336970;22;20057;-90
2022/10/21 11:13:27;;;;;;;16.85;13.15;;;;;;;;;;6306938;22;20058;-91
2022/10/21 11:16:12;;;;;;;19.60;12.23;;;;;;;;;;6307758;22;20026;-91
2022/10/21 11:18:44;;;;;;;18.58;13.98;;;;;;;;;;6285235;22;20109;-88
2022/10/21 11:21:36;;;;;;;16.33;13.77;;;;;;;;;;6310683;22;20101;-90
2022/10/21 11:24:25;;;;;;;20.45;13.77;;;;;;;;;;6303419;22;20102;-91
2022/10/21 11:37:26;;;;;;;25.13;16.52;;;;;;;;;;6249238;22;20345;-91
2022/10/21 11:40:20;;;;;;;21.15;15.73;;;;;;;;;;6220814;22;20016;-90
2022/10/21 11:46:37;;;;;;;31.38;17.80;;;;;;;;;;6198960;22;20029;-90
2022/10/21 11:52:04;;;;;;;19.15;16.15;;;;;;;;;;6322691;22;20109;-92
2022/10/21 11:54:30;;;;;;;22.35;16.98;;;;;;;;;;6279509;22;20049;-94
2022/10/21 11:56:59;;;;;;;19.40;15.68;;;;;;;;;;6305528;22;20525;-89
2022/10/21 12:05:27;;;;;;;19.35;14.60;;;;;;;;;;6315420;22;20018;-90
2022/10/21 12:08:13;;;;;;;20.67;14.10;;;;;;;;;;6318800;22;20138;-91
2022/10/21 12:13:45;;;;;;;17.77;12.68;;;;;;;;;;6293126;22;20381;-91
2022/10/21 12:16:46;;;;;;;17.30;12.88;;;;;;;;;;6216814;23;20051;-91
2022/10/21 12:19:25;;;;;;;16.88;12.23;;;;;;;;;;6239999;22;20030;-88
2022/10/21 12:21:52;;;;;;;17.15;12.18;;;;;;;;;;6285598;22;20019;-90
2022/10/21 12:30:49;;;;;;;19.77;14.13;;;;;;;;;;6305779;22;20037;-91
2022/10/21 12:33:39;;;;;;;23.00;14.45;;;;;;;;;;6282234;22;20105;-90
2022/10/21 12:36:27;;;;;;;19.80;14.05;;;;;;;;;;6280091;22;20027;-91
2022/10/21 12:39:02;;;;;;;19.33;13.95;;;;;;;;;;6263451;22;20022;-90
2022/10/21 12:41:33;;;;;;;21.77;13.55;;;;;;;;;;6287765;22;20862;-89
2022/10/21 12:44:11;;;;;;;17.75;13.85;;;;;;;;;;6282803;22;20027;-89
2022/10/21 12:47:08;;;;;;;26.13;14.50;;;;;;;;;;6335803;22;20482;-89
2022/10/21 12:49:53;;;;;;;16.02;13.18;;;;;;;;;;6343590;22;20019;-89
2022/10/21 13:03:54;;;;;;;21.33;13.00;;;;;;;;;;6305878;22;20022;-89
2022/10/21 13:06:38;;;;;;;16.55;12.45;;;;;;;;;;6339643;22;20018;-90
2022/10/21 13:09:24;;;;;;;16.13;11.50;;;;;;;;;;6283679;22;20090;-89
2022/10/21 13:12:06;;;;;;;16.67;11.13;;;;;;;;;;6309658;22;20019;-90
2022/10/21 13:14:52;;;;;;;16.73;11.07;;;;;;;;;;6311856;22;20102;-91
2022/10/21 13:17:21;;;;;;;18.27;11.50;;;;;;;;;;6309685;22;20021;-90
2022/10/21 13:19:49;;;;;;;16.77;11.55;;;;;;;;;;6338350;22;20025;-91
2022/10/21 13:22:21;;;;;;;17.88;11.23;;;;;;;;;;6284897;22;20033;-91
2022/10/21 13:24:49;;;;;;;15.60;11.50;;;;;;;;;;6283515;22;20856;-90
2022/10/21 13:27:34;;;;;;;17.33;11.80;;;;;;;;;;6259848;22;20084;-90
2022/10/21 13:30:01;;;;;;;18.05;11.07;;;;;;;;;;6307790;22;20104;-90
2022/10/21 13:32:29;;;;;;;15.57;12.27;;;;;;;;;;6310436;22;20038;-94
2022/10/21 13:35:27;;;;;;;16.40;11.48;;;;;;;;;;6337409;22;20328;-90
2022/10/21 13:38:02;;;;;;;14.30;10.90;;;;;;;;;;6283846;22;20030;-90
2022/10/21 13:40:44;;;;;;;18.20;10.90;;;;;;;;;;6282408;22;20453;-89
2022/10/21 13:43:29;;;;;;;19.73;11.60;;;;;;;;;;6337248;22;20023;-91
2022/10/21 13:49:41;;;;;;;17.67;11.07;;;;;;;;;;6308940;22;20026;-90
2022/10/21 13:52:10;;;;;;;16.85;11.65;;;;;;;;;;6332102;22;20023;-90
2022/10/21 13:54:55;;;;;;;18.25;11.30;;;;;;;;;;6306731;22;20029;-90
2022/10/21 13:57:22;;;;;;;14.85;11.48;;;;;;;;;;6270613;22;20023;-92
2022/10/21 14:00:08;;;;;;;17.58;11.07;;;;;;;;;;6267322;22;20637;-90
2022/10/21 14:05:03;;;;;;;16.05;11.25;;;;;;;;;;6251638;22;20055;-90
2022/10/21 14:08:04;;;;;;;17.90;11.52;;;;;;;;;;6199857;22;20020;-89
2022/10/21 14:10:36;;;;;;;17.15;11.75;;;;;;;;;;6275334;22;20027;-90
2022/10/21 14:13:10;;;;;;;17.30;10.98;;;;;;;;;;6248696;22;20024;-89
2022/10/21 14:15:52;;;;;;;14.73;11.25;;;;;;;;;;6246937;22;20020;-89
2022/10/21 14:18:36;;;;;;;20.75;12.35;;;;;;;;;;6222188;22;20023;-89
2022/10/21 14:21:35;;;;;;;16.40;11.38;;;;;;;;;;6150995;23;20025;-88
2022/10/21 14:24:19;;;;;;;17.95;11.38;;;;;;;;;;6125273;23;20017;-89
2022/10/21 14:26:58;;;;;;;;;;;;;;;;;;6204641;22;20055;-90
2022/10/21 14:29:43;;;;;;;18.63;12.13;;;;;;;;;;6275908;22;19938;-90
2022/10/21 14:32:43;;;;;;;22.05;12.02;;;;;;;;;;6254723;22;20053;-89
2022/10/21 14:35:10;;;;;;;18.13;12.05;;;;;;;;;;6233677;22;20026;-89
2022/10/21 14:37:44;;;;;;;15.35;12.13;;;;;;;;;;6253380;22;20019;-90
2022/10/21 14:40:12;;;;;;;;;;;;;;;;;;6250176;22;20019;-93
2022/10/21 14:43:16;;;;;;;17.27;12.40;;;;;;;;;;6265196;22;19930;-90
2022/10/21 14:46:15;;;;;;;22.63;12.93;;;;;;;;;;6287683;22;20054;-91
2022/10/21 14:49:03;;;;;;;17.65;12.30;;;;;;;;;;6312680;22;20033;-91
2022/10/21 14:51:41;;;;;;;21.40;15.32;;;;;;;;;;6313607;22;20019;-91
2022/10/21 14:54:28;;;;;;;19.50;12.93;;;;;;;;;;6289461;22;20069;-93
2022/10/21 14:57:48;;;;;;;20.70;13.68;;;16.80;99.90;;;;;;6288676;22;20501;-90
2022/10/21 15:07:07;;;;;;;19.25;13.27;;;;;;;;;;6335850;22;20035;-90
2022/10/21 15:09:58;;;;;;;19.08;14.50;;;;;;;;;;6280677;22;20443;-92
2022/10/21 15:19:53;;;;;;;21.88;14.55;;;;;;;;;;6309807;22;20022;-92
2022/10/21 15:31:20;;;;;;;20.33;13.88;;;;;;;;;;6338182;22;20034;-92
2022/10/21 15:37:46;;;;;;;20.40;13.77;;;;;;;;;;6279023;22;20103;-90
2022/10/21 15:40:12;;;;;;;15.73;13.00;;;;;;;;;;6248072;22;20598;-93
2022/10/21 15:42:39;;;;;;;16.92;13.45;;;;;;;;;;6248564;22;20016;-92
2022/10/21 15:48:09;;;;;;;22.90;14.40;;;;;;;;;;6186969;23;20484;-90
2022/10/21 15:50:35;;;;;;;21.33;13.15;;;;;;;;;;6161205;23;20059;-89
2022/10/21 15:53:22;;;;;;;19.75;13.27;;;;;;;;;;6161053;23;20357;-90
2022/10/21 15:56:28;;;;;;;22.70;14.57;;;16.50;99.90;;;;;;6162482;23;20025;-92
2022/10/21 16:02:01;;;;;;;23.38;14.70;;;;;;;;;;6212869;23;20020;-91
2022/10/21 16:04:42;;;;;;;;;;;;;;;;;;6212981;23;20051;-92
2022/10/21 16:07:35;;;;;;;19.20;14.38;;;16.40;99.90;;;;;;6255033;22;19960;-88
2022/10/21 16:10:13;;;;;;;22.20;14.13;;;;;;;;;;6279312;22;20049;-91
2022/10/21 16:15:41;;;;;;;23.02;13.68;;;;;;;;;;6335666;22;20031;-89
2022/10/21 16:18:33;;;;;;;23.83;13.55;;;;;;;;;;6309488;22;20034;-91
2022/10/21 16:21:31;;;;;;;19.05;13.80;;;;;;;;;;6272737;22;20031;-89
2022/10/21 16:30:35;;;;;;;23.38;14.18;;;16.40;99.90;;;;;;6338556;22;20448;-89
2022/10/21 16:33:07;;;;;;;20.52;12.80;;;;;;;;;;6337229;22;20131;-90
2022/10/21 16:42:15;;;;;;;20.80;12.90;;;16.20;99.90;;;;;;6339447;22;20064;-90
2022/10/21 16:45:08;;;;;;;17.10;11.35;;;;;;;;;;6278129;22;20034;-90
2022/10/21 16:47:47;;;;;;;19.80;13.00;;;;;;;;;;6255496;22;20021;-90
2022/10/21 16:50:19;;;;;;;17.60;12.43;;;;;;;;;;6308605;22;20023;-90
2022/10/21 16:52:57;;;;;;;17.95;12.75;;;;;;;;;;6334152;22;20031;-91
2022/10/21 16:55:23;;;;;;;14.50;12.73;;;;;;;;;;6290564;22;20015;-90
2022/10/21 16:58:08;;;;;;;24.15;12.82;;;;;;;;;;6287937;22;20015;-91
2022/10/21 17:01:09;;;;;;;24.02;12.63;;;;;;;;;;6285780;22;20022;-89
2022/10/21 17:07:10;;;;;;;18.48;12.40;;;;;;;;;;6341755;22;20067;-90
2022/10/21 17:09:36;;;;;;;24.25;13.65;;;;;;;;;;6310876;22;20021;-90
2022/10/21 17:12:03;;;;;;;18.17;12.98;;;;;;;;;;6280537;22;20019;-90
2022/10/21 17:14:51;;;;;;;15.07;11.38;;;;;;;;;;6280552;22;20038;-90
2022/10/21 17:17:19;;;;;;;22.55;12.18;;;;;;;;;;6280640;22;20069;-90
2022/10/21 17:19:47;;;;;;;19.20;12.20;;;;;;;;;;6305140;22;20023;-88
2022/10/21 17:22:15;;;;;;;21.55;12.45;;;;;;;;;;6305560;22;20053;-88
2022/10/21 17:24:50;;;;;;;18.50;12.40;;;;;;;;;;6333020;22;20022;-92
2022/10/21 17:27:22;;;;;;;20.50;13.02;;;;;;;;;;6280089;22;20033;-89
2022/10/21 17:29:52;;;;;;;19.30;13.25;;;;;;;;;;6306551;22;20444;-89
2022/10/21 17:35:35;;;;;;;17.10;13.05;;;;;;;;;;6275784;22;20028;-90
2022/10/21 17:38:27;;;;;;;23.98;12.80;;;;;;;;;;6221700;22;20019;-89
2022/10/21 17:40:56;;;;;;;17.55;12.00;;;;;;;;;;6248099;22;20103;-92
2022/10/21 17:43:25;;;;;;;19.20;11.38;;;;;;;;;;6246160;22;20031;-89
2022/10/21 17:45:55;;;;;;;16.60;11.88;;;;;;;;;;6220735;22;20023;-90
2022/10/21 17:48:31;;;;;;;24.75;13.75;;;;;;;;;;6287986;22;20478;-88
2022/10/21 17:51:01;;;;;;;18.63;11.48;;;;;;;;;;6328132;22;20469;-91
2022/10/21 17:53:34;;;;;;;18.95;11.82;;;;;;;;;;6300726;22;20011;-90
2022/10/21 17:56:37;;;;;;;18.65;11.70;;;;;;;;;;6300651;22;20423;-89
2022/10/21 17:59:32;;;;;;;15.75;11.88;;;;;;;;;;6275193;22;20023;-90
2022/10/21 18:12:17;;;;;;;16.75;11.07;;;;;;;;;;6307733;22;20023;-88
2022/10/21 18:15:15;;;;;;;20.98;11.40;;;;;;;;;;6284247;22;20015;-88
2022/10/21 18:17:41;;;;;;;18.88;10.65;;;;;;;;;;6308700;22;20027;-91
2022/10/21 18:20:20;;;;;;;17.95;10.57;;;;;;;;;;6311618;22;20046;-87
2022/10/21 18:22:52;;;;;;;18.98;11.00;;;;;;;;;;6284141;22;20505;-89
2022/10/21 18:28:52;;;;;;;16.45;10.45;;;;;;;;;;6266131;22;20068;-91
2022/10/21 18:31:35;;;;;;;14.68;10.60;;;;;;;;;;6313276;22;20081;-91
2022/10/21 18:34:03;;;;;;;16.27;10.60;;;;;;;;;;6310589;22;20025;-90
2022/10/21 18:36:43;;;;;;;18.13;10.70;;;;;;;;;;6309986;22;20033;-92
2022/10/21 18:39:09;;;;;;;20.35;10.43;;;;;;;;;;6310935;22;20022;-90
2022/10/21 18:41:42;;;;;;;19.85;11.35;;;;;;;;;;6286651;22;20022;-91
2022/10/21 18:44:13;;;;;;;18.70;11.13;;;;;;;;;;6284085;22;20030;-88
2022/10/21 18:46:51;;;;;;;17.40;11.43;;;;;;;;;;6338675;22;20022;-87
2022/10/21 18:49:33;;;;;;;15.82;11.15;;;;;;;;;;6335453;22;20022;-92
2022/10/21 18:52:10;;;;;;;28.38;18.23;;;;;;;;;;6311506;22;20465;-89
2022/10/21 18:54:39;;;;;;;26.90;18.50;;;;;;;;;;6310640;22;20507;-91
2022/10/21 18:57:08;;;;;;;17.80;11.75;;;;;;;;;;6285865;22;20023;-91
2022/10/21 18:59:49;;;;;;;;;;;;;;;;;;6278918;22;20909;-92
2022/10/21 19:02:28;;;;;;;17.20;11.75;;;;;;;;;;6306838;22;19941;-92